sensor_id;sensor_type;location;lat;lon;timestamp;temperature;humidity
29501;DHT22;16450;50.288;10.966;2022-10-31T00:01:38;10.90;96.80
29501;DHT22;16450;50.288;10.966;2022-10-31T00:04:39;10.90;96.80
29501;DHT22;16450;50.288;10.966;2022-10-31T00:07:39;10.90;96.80
29501;DHT22;16450;50.288;10.966;2022-10-31T00:10:41;10.80;96.80
29501;DHT22;16450;50.288;10.966;2022-10-31T00:13:42;10.80;96.90
29501;DHT22;16450;50.288;10.966;2022-10-31T00:16:42;10.80;96.90
29501;DHT22;16450;50.288;10.966;2022-10-31T00:19:43;10.70;97.00
29501;DHT22;16450;50.288;10.966;2022-10-31T00:22:44;10.70;96.90
29501;DHT22;16450;50.288;10.966;2022-10-31T00:25:45;10.70;97.30
29501;DHT22;16450;50.288;10.966;2022-10-31T00:28:45;10.70;97.00
29501;DHT22;16450;50.288;10.966;2022-10-31T00:31:46;10.60;96.90
29501;DHT22;16450;50.288;10.966;2022-10-31T00:34:47;10.60;96.90
29501;DHT22;16450;50.288;10.966;2022-10-31T00:37:47;10.60;96.90
29501;DHT22;16450;50.288;10.966;2022-10-31T00:40:48;10.50;96.90
29501;DHT22;16450;50.288;10.966;2022-10-31T00:43:49;10.50;96.90
29501;DHT22;16450;50.288;10.966;2022-10-31T00:46:49;10.50;97.00
29501;DHT22;16450;50.288;10.966;2022-10-31T00:49:50;10.40;96.90
29501;DHT22;16450;50.288;10.966;2022-10-31T00:52:51;10.40;96.80
29501;DHT22;16450;50.288;10.966;2022-10-31T00:55:51;10.40;96.80
29501;DHT22;16450;50.288;10.966;2022-10-31T00:58:52;10.30;96.60
29501;DHT22;16450;50.288;10.966;2022-10-31T01:01:53;10.30;96.70
29501;DHT22;16450;50.288;10.966;2022-10-31T01:04:53;10.20;96.70
29501;DHT22;16450;50.288;10.966;2022-10-31T01:07:54;10.20;96.70
29501;DHT22;16450;50.288;10.966;2022-10-31T01:11:06;10.20;96.80
29501;DHT22;16450;50.288;10.966;2022-10-31T01:14:08;10.10;96.60
29501;DHT22;16450;50.288;10.966;2022-10-31T01:17:09;10.10;96.60
29501;DHT22;16450;50.288;10.966;2022-10-31T01:20:11;10.10;96.60
29501;DHT22;16450;50.288;10.966;2022-10-31T01:23:12;10.00;96.50
29501;DHT22;16450;50.288;10.966;2022-10-31T01:26:14;10.00;96.60
29501;DHT22;16450;50.288;10.966;2022-10-31T01:29:14;9.90;96.60
29501;DHT22;16450;50.288;10.966;2022-10-31T01:32:15;9.90;96.70
29501;DHT22;16450;50.288;10.966;2022-10-31T01:35:16;9.80;97.10
29501;DHT22;16450;50.288;10.966;2022-10-31T01:38:16;9.80;96.80
29501;DHT22;16450;50.288;10.966;2022-10-31T01:41:23;9.80;96.90
29501;DHT22;16450;50.288;10.966;2022-10-31T01:47:37;9.70;96.90
29501;DHT22;16450;50.288;10.966;2022-10-31T01:50:39;9.70;96.80
29501;DHT22;16450;50.288;10.966;2022-10-31T01:53:42;9.70;97.00
29501;DHT22;16450;50.288;10.966;2022-10-31T01:56:47;9.70;97.20
29501;DHT22;16450;50.288;10.966;2022-10-31T01:59:54;9.70;97.40
29501;DHT22;16450;50.288;10.966;2022-10-31T02:02:57;9.60;97.40
29501;DHT22;16450;50.288;10.966;2022-10-31T02:06:00;9.70;97.50
29501;DHT22;16450;50.288;10.966;2022-10-31T02:09:05;9.70;97.60
29501;DHT22;16450;50.288;10.966;2022-10-31T02:12:06;9.70;97.60
29501;DHT22;16450;50.288;10.966;2022-10-31T02:15:09;9.60;97.50
29501;DHT22;16450;50.288;10.966;2022-10-31T02:18:10;9.60;97.40
29501;DHT22;16450;50.288;10.966;2022-10-31T02:34:25;9.50;97.00
29501;DHT22;16450;50.288;10.966;2022-10-31T02:38:12;9.40;96.90
29501;DHT22;16450;50.288;10.966;2022-10-31T02:41:31;9.40;96.90
29501;DHT22;16450;50.288;10.966;2022-10-31T02:47:38;9.30;97.00
29501;DHT22;16450;50.288;10.966;2022-10-31T02:50:42;9.30;97.10
29501;DHT22;16450;50.288;10.966;2022-10-31T02:53:44;9.20;97.10
29501;DHT22;16450;50.288;10.966;2022-10-31T02:56:45;9.20;97.10
29501;DHT22;16450;50.288;10.966;2022-10-31T02:59:53;9.20;97.20
29501;DHT22;16450;50.288;10.966;2022-10-31T03:03:00;9.20;97.10
29501;DHT22;16450;50.288;10.966;2022-10-31T03:06:14;9.10;97.10
29501;DHT22;16450;50.288;10.966;2022-10-31T03:09:33;9.10;97.10
29501;DHT22;16450;50.288;10.966;2022-10-31T03:12:39;9.10;97.10
29501;DHT22;16450;50.288;10.966;2022-10-31T03:15:48;9.00;97.10
29501;DHT22;16450;50.288;10.966;2022-10-31T03:19:04;9.00;97.10
29501;DHT22;16450;50.288;10.966;2022-10-31T03:22:23;9.00;97.10
29501;DHT22;16450;50.288;10.966;2022-10-31T03:25:26;9.00;97.10
29501;DHT22;16450;50.288;10.966;2022-10-31T03:28:30;8.90;97.20
29501;DHT22;16450;50.288;10.966;2022-10-31T03:31:37;8.80;97.20
29501;DHT22;16450;50.288;10.966;2022-10-31T03:34:41;8.90;97.30
29501;DHT22;16450;50.288;10.966;2022-10-31T03:37:43;8.90;97.40
29501;DHT22;16450;50.288;10.966;2022-10-31T03:40:46;8.80;97.60
29501;DHT22;16450;50.288;10.966;2022-10-31T03:43:54;8.80;97.60
29501;DHT22;16450;50.288;10.966;2022-10-31T03:46:55;8.90;97.80
29501;DHT22;16450;50.288;10.966;2022-10-31T03:49:56;8.80;97.90
29501;DHT22;16450;50.288;10.966;2022-10-31T03:53:06;8.80;98.00
29501;DHT22;16450;50.288;10.966;2022-10-31T03:56:35;8.80;98.00
29501;DHT22;16450;50.288;10.966;2022-10-31T03:59:44;8.80;98.00
29501;DHT22;16450;50.288;10.966;2022-10-31T04:06:08;8.80;97.80
29501;DHT22;16450;50.288;10.966;2022-10-31T04:09:12;8.70;97.80
29501;DHT22;16450;50.288;10.966;2022-10-31T04:12:15;8.70;97.70
29501;DHT22;16450;50.288;10.966;2022-10-31T04:15:17;8.70;97.50
29501;DHT22;16450;50.288;10.966;2022-10-31T04:18:17;8.70;97.50
29501;DHT22;16450;50.288;10.966;2022-10-31T04:21:18;8.60;97.30
29501;DHT22;16450;50.288;10.966;2022-10-31T04:24:19;8.60;97.30
29501;DHT22;16450;50.288;10.966;2022-10-31T04:27:19;8.60;97.30
29501;DHT22;16450;50.288;10.966;2022-10-31T04:30:20;8.50;97.30
29501;DHT22;16450;50.288;10.966;2022-10-31T04:33:21;8.50;97.30
29501;DHT22;16450;50.288;10.966;2022-10-31T04:36:22;8.50;97.30
29501;DHT22;16450;50.288;10.966;2022-10-31T04:39:23;8.50;97.40
29501;DHT22;16450;50.288;10.966;2022-10-31T04:42:23;8.40;97.40
29501;DHT22;16450;50.288;10.966;2022-10-31T04:45:24;8.40;97.50
29501;DHT22;16450;50.288;10.966;2022-10-31T04:48:25;8.30;97.50
29501;DHT22;16450;50.288;10.966;2022-10-31T04:51:25;8.40;97.60
29501;DHT22;16450;50.288;10.966;2022-10-31T04:54:26;8.30;97.50
29501;DHT22;16450;50.288;10.966;2022-10-31T04:57:26;8.30;97.50
29501;DHT22;16450;50.288;10.966;2022-10-31T05:00:27;8.30;97.60
29501;DHT22;16450;50.288;10.966;2022-10-31T05:03:28;8.20;97.50
29501;DHT22;16450;50.288;10.966;2022-10-31T05:06:28;8.20;97.50
29501;DHT22;16450;50.288;10.966;2022-10-31T05:09:29;8.20;97.50
29501;DHT22;16450;50.288;10.966;2022-10-31T05:12:30;8.20;97.60
29501;DHT22;16450;50.288;10.966;2022-10-31T05:15:30;8.20;97.60
29501;DHT22;16450;50.288;10.966;2022-10-31T05:18:31;8.10;97.60
29501;DHT22;16450;50.288;10.966;2022-10-31T05:21:32;8.10;97.70
29501;DHT22;16450;50.288;10.966;2022-10-31T05:24:32;8.20;97.80
29501;DHT22;16450;50.288;10.966;2022-10-31T05:27:33;8.10;97.70
29501;DHT22;16450;50.288;10.966;2022-10-31T05:30:34;8.10;97.70
29501;DHT22;16450;50.288;10.966;2022-10-31T05:33:35;8.10;97.60
29501;DHT22;16450;50.288;10.966;2022-10-31T05:36:36;8.10;97.60
29501;DHT22;16450;50.288;10.966;2022-10-31T05:39:36;8.00;97.60
29501;DHT22;16450;50.288;10.966;2022-10-31T05:42:41;8.00;97.60
29501;DHT22;16450;50.288;10.966;2022-10-31T05:45:42;7.90;98.00
29501;DHT22;16450;50.288;10.966;2022-10-31T05:48:43;7.90;98.00
29501;DHT22;16450;50.288;10.966;2022-10-31T05:51:43;8.00;97.50
29501;DHT22;16450;50.288;10.966;2022-10-31T05:54:44;7.90;98.00
29501;DHT22;16450;50.288;10.966;2022-10-31T05:57:45;7.90;98.00
29501;DHT22;16450;50.288;10.966;2022-10-31T06:00:45;7.80;98.10
29501;DHT22;16450;50.288;10.966;2022-10-31T06:03:46;7.80;98.20
29501;DHT22;16450;50.288;10.966;2022-10-31T06:06:46;7.80;98.30
29501;DHT22;16450;50.288;10.966;2022-10-31T06:09:47;7.80;98.30
29501;DHT22;16450;50.288;10.966;2022-10-31T06:12:48;7.80;98.40
29501;DHT22;16450;50.288;10.966;2022-10-31T06:15:49;7.70;98.40
29501;DHT22;16450;50.288;10.966;2022-10-31T06:18:50;7.80;98.50
29501;DHT22;16450;50.288;10.966;2022-10-31T06:21:50;7.80;98.60
29501;DHT22;16450;50.288;10.966;2022-10-31T06:24:51;7.80;98.70
29501;DHT22;16450;50.288;10.966;2022-10-31T06:27:51;7.80;98.80
29501;DHT22;16450;50.288;10.966;2022-10-31T06:30:52;7.80;98.80
29501;DHT22;16450;50.288;10.966;2022-10-31T06:33:52;7.80;98.90
29501;DHT22;16450;50.288;10.966;2022-10-31T06:36:53;7.80;99.00
29501;DHT22;16450;50.288;10.966;2022-10-31T06:39:54;7.90;99.20
29501;DHT22;16450;50.288;10.966;2022-10-31T06:43:01;7.90;99.30
29501;DHT22;16450;50.288;10.966;2022-10-31T06:46:03;7.90;99.30
29501;DHT22;16450;50.288;10.966;2022-10-31T06:49:04;7.90;99.40
29501;DHT22;16450;50.288;10.966;2022-10-31T06:52:05;8.00;99.00
29501;DHT22;16450;50.288;10.966;2022-10-31T06:55:05;8.00;99.10
29501;DHT22;16450;50.288;10.966;2022-10-31T06:58:07;8.00;99.20
29501;DHT22;16450;50.288;10.966;2022-10-31T07:01:08;8.00;99.40
29501;DHT22;16450;50.288;10.966;2022-10-31T07:04:10;8.10;99.50
29501;DHT22;16450;50.288;10.966;2022-10-31T07:07:11;8.20;99.70
29501;DHT22;16450;50.288;10.966;2022-10-31T07:10:11;8.20;99.70
29501;DHT22;16450;50.288;10.966;2022-10-31T07:13:13;8.20;99.80
29501;DHT22;16450;50.288;10.966;2022-10-31T07:16:14;8.30;99.80
29501;DHT22;16450;50.288;10.966;2022-10-31T07:19:15;8.40;99.90
29501;DHT22;16450;50.288;10.966;2022-10-31T07:22:15;8.40;99.90
29501;DHT22;16450;50.288;10.966;2022-10-31T07:25:16;8.40;99.90
29501;DHT22;16450;50.288;10.966;2022-10-31T07:28:18;8.50;99.90
29501;DHT22;16450;50.288;10.966;2022-10-31T07:31:19;8.60;99.90
29501;DHT22;16450;50.288;10.966;2022-10-31T07:34:20;8.60;99.90
29501;DHT22;16450;50.288;10.966;2022-10-31T07:37:21;8.70;99.90
29501;DHT22;16450;50.288;10.966;2022-10-31T07:40:22;8.70;99.90
29501;DHT22;16450;50.288;10.966;2022-10-31T07:43:23;8.70;99.90
29501;DHT22;16450;50.288;10.966;2022-10-31T07:46:23;8.80;99.90
29501;DHT22;16450;50.288;10.966;2022-10-31T07:49:24;8.90;99.90
29501;DHT22;16450;50.288;10.966;2022-10-31T07:52:25;8.80;99.90
29501;DHT22;16450;50.288;10.966;2022-10-31T07:55:26;8.90;99.90
29501;DHT22;16450;50.288;10.966;2022-10-31T07:58:27;8.90;99.90
29501;DHT22;16450;50.288;10.966;2022-10-31T08:01:28;8.90;99.90
29501;DHT22;16450;50.288;10.966;2022-10-31T08:04:29;8.90;99.90
29501;DHT22;16450;50.288;10.966;2022-10-31T08:07:29;9.00;99.90
29501;DHT22;16450;50.288;10.966;2022-10-31T08:10:30;9.00;99.90
29501;DHT22;16450;50.288;10.966;2022-10-31T08:13:31;9.10;99.90
29501;DHT22;16450;50.288;10.966;2022-10-31T08:16:32;9.10;99.90
29501;DHT22;16450;50.288;10.966;2022-10-31T08:23:17;9.20;99.90
29501;DHT22;16450;50.288;10.966;2022-10-31T08:26:17;9.30;99.90
29501;DHT22;16450;50.288;10.966;2022-10-31T08:29:18;9.30;99.90
29501;DHT22;16450;50.288;10.966;2022-10-31T08:32:19;9.40;99.90
29501;DHT22;16450;50.288;10.966;2022-10-31T08:35:19;9.50;99.90
29501;DHT22;16450;50.288;10.966;2022-10-31T08:38:20;9.60;99.90
29501;DHT22;16450;50.288;10.966;2022-10-31T08:41:21;9.70;99.90
29501;DHT22;16450;50.288;10.966;2022-10-31T08:44:21;9.80;99.90
29501;DHT22;16450;50.288;10.966;2022-10-31T08:47:22;9.90;99.90
29501;DHT22;16450;50.288;10.966;2022-10-31T08:50:23;10.00;99.90
29501;DHT22;16450;50.288;10.966;2022-10-31T08:53:24;10.20;99.90
29501;DHT22;16450;50.288;10.966;2022-10-31T08:56:24;10.30;99.90
29501;DHT22;16450;50.288;10.966;2022-10-31T08:59:25;10.50;99.90
29501;DHT22;16450;50.288;10.966;2022-10-31T09:02:25;10.60;99.90
29501;DHT22;16450;50.288;10.966;2022-10-31T09:05:26;10.80;99.90
29501;DHT22;16450;50.288;10.966;2022-10-31T09:08:29;11.00;99.90
29501;DHT22;16450;50.288;10.966;2022-10-31T09:11:31;11.20;99.90
29501;DHT22;16450;50.288;10.966;2022-10-31T09:14:31;11.50;99.90
29501;DHT22;16450;50.288;10.966;2022-10-31T09:17:32;11.80;99.90
29501;DHT22;16450;50.288;10.966;2022-10-31T09:20:35;12.00;99.90
29501;DHT22;16450;50.288;10.966;2022-10-31T09:23:36;12.20;99.90
29501;DHT22;16450;50.288;10.966;2022-10-31T09:26:36;12.50;99.90
29501;DHT22;16450;50.288;10.966;2022-10-31T09:29:37;12.70;99.90
29501;DHT22;16450;50.288;10.966;2022-10-31T09:32:37;13.00;99.90
29501;DHT22;16450;50.288;10.966;2022-10-31T09:35:39;13.30;99.90
29501;DHT22;16450;50.288;10.966;2022-10-31T09:38:40;13.50;99.90
29501;DHT22;16450;50.288;10.966;2022-10-31T09:41:56;13.80;99.90
29501;DHT22;16450;50.288;10.966;2022-10-31T09:51:38;14.60;99.90
29501;DHT22;16450;50.288;10.966;2022-10-31T09:54:59;14.80;99.90
29501;DHT22;16450;50.288;10.966;2022-10-31T09:58:01;15.10;99.90
29501;DHT22;16450;50.288;10.966;2022-10-31T10:01:03;15.20;99.90
29501;DHT22;16450;50.288;10.966;2022-10-31T10:23:51;15.90;99.90
29501;DHT22;16450;50.288;10.966;2022-10-31T10:27:03;15.90;99.90
29501;DHT22;16450;50.288;10.966;2022-10-31T10:30:20;16.00;99.90
29501;DHT22;16450;50.288;10.966;2022-10-31T10:33:28;16.00;99.10
29501;DHT22;16450;50.288;10.966;2022-10-31T10:36:44;16.10;99.60
29501;DHT22;16450;50.288;10.966;2022-10-31T10:39:49;16.00;99.10
29501;DHT22;16450;50.288;10.966;2022-10-31T10:46:51;16.10;98.80
29501;DHT22;16450;50.288;10.966;2022-10-31T10:50:18;16.10;98.60
29501;DHT22;16450;50.288;10.966;2022-10-31T10:53:39;16.10;99.50
29501;DHT22;16450;50.288;10.966;2022-10-31T11:00:24;16.10;98.80
29501;DHT22;16450;50.288;10.966;2022-10-31T11:03:25;16.20;99.80
29501;DHT22;16450;50.288;10.966;2022-10-31T11:06:26;16.20;99.90
29501;DHT22;16450;50.288;10.966;2022-10-31T11:09:26;16.20;99.90
29501;DHT22;16450;50.288;10.966;2022-10-31T11:12:32;16.20;99.90
29501;DHT22;16450;50.288;10.966;2022-10-31T11:15:39;16.30;99.60
29501;DHT22;16450;50.288;10.966;2022-10-31T11:18:49;16.30;99.90
29501;DHT22;16450;50.288;10.966;2022-10-31T11:21:50;16.40;99.90
29501;DHT22;16450;50.288;10.966;2022-10-31T11:24:50;16.40;99.70
29501;DHT22;16450;50.288;10.966;2022-10-31T11:28:02;16.50;99.70
29501;DHT22;16450;50.288;10.966;2022-10-31T11:31:10;16.50;98.50
29501;DHT22;16450;50.288;10.966;2022-10-31T11:34:42;16.60;99.30
29501;DHT22;16450;50.288;10.966;2022-10-31T11:37:44;16.70;99.20
29501;DHT22;16450;50.288;10.966;2022-10-31T11:41:14;16.70;99.20
29501;DHT22;16450;50.288;10.966;2022-10-31T11:44:19;16.80;99.00
29501;DHT22;16450;50.288;10.966;2022-10-31T11:47:27;16.80;98.90
29501;DHT22;16450;50.288;10.966;2022-10-31T11:50:40;16.90;99.10
29501;DHT22;16450;50.288;10.966;2022-10-31T11:53:51;16.90;98.50
29501;DHT22;16450;50.288;10.966;2022-10-31T11:56:52;17.00;98.60
29501;DHT22;16450;50.288;10.966;2022-10-31T11:59:54;17.00;99.60
29501;DHT22;16450;50.288;10.966;2022-10-31T12:06:36;17.20;98.30
29501;DHT22;16450;50.288;10.966;2022-10-31T12:09:38;17.20;99.90
29501;DHT22;16450;50.288;10.966;2022-10-31T12:16:14;17.40;98.60
29501;DHT22;16450;50.288;10.966;2022-10-31T12:19:33;17.40;98.90
29501;DHT22;16450;50.288;10.966;2022-10-31T12:35:46;17.70;98.70
29501;DHT22;16450;50.288;10.966;2022-10-31T12:39:07;17.80;99.20
29501;DHT22;16450;50.288;10.966;2022-10-31T12:42:45;17.90;97.80
29501;DHT22;16450;50.288;10.966;2022-10-31T12:45:53;17.90;98.20
29501;DHT22;16450;50.288;10.966;2022-10-31T13:01:51;18.10;98.90
29501;DHT22;16450;50.288;10.966;2022-10-31T13:04:58;18.00;98.30
29501;DHT22;16450;50.288;10.966;2022-10-31T13:08:18;18.10;98.40
29501;DHT22;16450;50.288;10.966;2022-10-31T13:11:26;18.10;97.50
29501;DHT22;16450;50.288;10.966;2022-10-31T13:14:44;18.00;97.90
29501;DHT22;16450;50.288;10.966;2022-10-31T13:17:49;18.10;97.50
29501;DHT22;16450;50.288;10.966;2022-10-31T13:20:51;18.00;98.30
29501;DHT22;16450;50.288;10.966;2022-10-31T13:23:55;18.10;98.90
29501;DHT22;16450;50.288;10.966;2022-10-31T13:26:59;18.00;98.90
29501;DHT22;16450;50.288;10.966;2022-10-31T13:33:39;18.00;98.10
29501;DHT22;16450;50.288;10.966;2022-10-31T13:37:23;18.00;98.20
29501;DHT22;16450;50.288;10.966;2022-10-31T13:44:08;18.00;98.20
29501;DHT22;16450;50.288;10.966;2022-10-31T13:50:29;18.00;98.60
29501;DHT22;16450;50.288;10.966;2022-10-31T13:53:43;18.00;98.80
29501;DHT22;16450;50.288;10.966;2022-10-31T13:56:49;18.00;98.30
29501;DHT22;16450;50.288;10.966;2022-10-31T13:59:53;18.00;98.80
29501;DHT22;16450;50.288;10.966;2022-10-31T14:02:56;18.00;98.70
29501;DHT22;16450;50.288;10.966;2022-10-31T14:05:57;17.90;98.90
29501;DHT22;16450;50.288;10.966;2022-10-31T14:08:58;17.90;99.00
29501;DHT22;16450;50.288;10.966;2022-10-31T14:12:03;17.90;98.90
29501;DHT22;16450;50.288;10.966;2022-10-31T14:15:11;17.80;98.60
29501;DHT22;16450;50.288;10.966;2022-10-31T14:21:31;17.80;98.40
29501;DHT22;16450;50.288;10.966;2022-10-31T14:24:37;17.70;99.00
29501;DHT22;16450;50.288;10.966;2022-10-31T14:27:47;17.70;99.20
29501;DHT22;16450;50.288;10.966;2022-10-31T14:30:53;17.70;98.40
29501;DHT22;16450;50.288;10.966;2022-10-31T14:33:54;17.70;98.70
29501;DHT22;16450;50.288;10.966;2022-10-31T14:50:21;17.50;98.80
29501;DHT22;16450;50.288;10.966;2022-10-31T14:53:30;17.40;99.10
29501;DHT22;16450;50.288;10.966;2022-10-31T14:56:34;17.40;99.30
29501;DHT22;16450;50.288;10.966;2022-10-31T14:59:38;17.40;99.20
29501;DHT22;16450;50.288;10.966;2022-10-31T15:06:01;17.30;98.70
29501;DHT22;16450;50.288;10.966;2022-10-31T15:09:02;17.20;99.10
29501;DHT22;16450;50.288;10.966;2022-10-31T15:12:24;17.10;99.30
29501;DHT22;16450;50.288;10.966;2022-10-31T15:15:26;17.10;98.70
29501;DHT22;16450;50.288;10.966;2022-10-31T15:18:27;17.00;99.20
29501;DHT22;16450;50.288;10.966;2022-10-31T15:21:29;16.90;99.20
29501;DHT22;16450;50.288;10.966;2022-10-31T15:24:36;16.90;99.40
29501;DHT22;16450;50.288;10.966;2022-10-31T15:27:40;16.80;98.90
29501;DHT22;16450;50.288;10.966;2022-10-31T15:30:50;16.80;99.20
29501;DHT22;16450;50.288;10.966;2022-10-31T15:33:53;16.70;99.00
29501;DHT22;16450;50.288;10.966;2022-10-31T15:36:55;16.60;99.50
29501;DHT22;16450;50.288;10.966;2022-10-31T15:39:55;16.60;99.60
29501;DHT22;16450;50.288;10.966;2022-10-31T15:43:06;16.50;99.60
29501;DHT22;16450;50.288;10.966;2022-10-31T15:46:08;16.40;99.60
29501;DHT22;16450;50.288;10.966;2022-10-31T15:50:17;16.30;99.50
29501;DHT22;16450;50.288;10.966;2022-10-31T15:52:47;16.30;99.10
29501;DHT22;16450;50.288;10.966;2022-10-31T15:56:08;16.20;99.60
29501;DHT22;16450;50.288;10.966;2022-10-31T15:59:28;16.20;99.10
29501;DHT22;16450;50.288;10.966;2022-10-31T16:02:30;16.10;98.90
29501;DHT22;16450;50.288;10.966;2022-10-31T16:05:43;16.00;99.80
29501;DHT22;16450;50.288;10.966;2022-10-31T16:08:48;16.00;99.40
29501;DHT22;16450;50.288;10.966;2022-10-31T16:11:50;15.90;99.60
29501;DHT22;16450;50.288;10.966;2022-10-31T16:14:52;15.90;99.70
29501;DHT22;16450;50.288;10.966;2022-10-31T16:17:54;15.80;99.60
29501;DHT22;16450;50.288;10.966;2022-10-31T16:20:55;15.80;99.70
29501;DHT22;16450;50.288;10.966;2022-10-31T16:24:03;15.80;99.70
29501;DHT22;16450;50.288;10.966;2022-10-31T16:27:13;15.80;99.40
29501;DHT22;16450;50.288;10.966;2022-10-31T16:30:39;15.70;99.50
29501;DHT22;16450;50.288;10.966;2022-10-31T16:33:40;15.70;98.80
29501;DHT22;16450;50.288;10.966;2022-10-31T16:36:42;15.70;99.60
29501;DHT22;16450;50.288;10.966;2022-10-31T16:39:43;15.60;99.50
29501;DHT22;16450;50.288;10.966;2022-10-31T16:42:45;15.60;99.50
29501;DHT22;16450;50.288;10.966;2022-10-31T16:45:50;15.50;99.50
29501;DHT22;16450;50.288;10.966;2022-10-31T16:48:51;15.50;99.40
29501;DHT22;16450;50.288;10.966;2022-10-31T16:51:52;15.40;99.50
29501;DHT22;16450;50.288;10.966;2022-10-31T16:54:52;15.40;99.50
29501;DHT22;16450;50.288;10.966;2022-10-31T16:57:56;15.40;99.50
29501;DHT22;16450;50.288;10.966;2022-10-31T17:00:57;15.30;99.40
29501;DHT22;16450;50.288;10.966;2022-10-31T17:03:58;15.30;99.50
29501;DHT22;16450;50.288;10.966;2022-10-31T17:06:59;15.20;99.40
29501;DHT22;16450;50.288;10.966;2022-10-31T17:09:59;15.30;99.60
29501;DHT22;16450;50.288;10.966;2022-10-31T17:13:02;15.20;99.50
29501;DHT22;16450;50.288;10.966;2022-10-31T17:16:04;15.20;99.40
29501;DHT22;16450;50.288;10.966;2022-10-31T17:19:05;15.20;99.40
29501;DHT22;16450;50.288;10.966;2022-10-31T17:22:07;15.20;99.40
29501;DHT22;16450;50.288;10.966;2022-10-31T17:25:14;15.10;99.30
29501;DHT22;16450;50.288;10.966;2022-10-31T17:28:15;15.10;98.90
29501;DHT22;16450;50.288;10.966;2022-10-31T17:31:26;15.00;99.00
29501;DHT22;16450;50.288;10.966;2022-10-31T17:34:27;15.00;98.60
29501;DHT22;16450;50.288;10.966;2022-10-31T17:37:28;14.90;98.80
29501;DHT22;16450;50.288;10.966;2022-10-31T17:40:28;14.90;98.70
29501;DHT22;16450;50.288;10.966;2022-10-31T17:43:29;14.80;98.70
29501;DHT22;16450;50.288;10.966;2022-10-31T17:46:30;14.80;98.70
29501;DHT22;16450;50.288;10.966;2022-10-31T17:49:30;14.70;98.60
29501;DHT22;16450;50.288;10.966;2022-10-31T17:52:31;14.60;98.60
29501;DHT22;16450;50.288;10.966;2022-10-31T17:55:32;14.60;98.60
29501;DHT22;16450;50.288;10.966;2022-10-31T17:58:34;14.50;98.60
29501;DHT22;16450;50.288;10.966;2022-10-31T18:01:35;14.50;98.60
29501;DHT22;16450;50.288;10.966;2022-10-31T18:04:36;14.40;98.50
29501;DHT22;16450;50.288;10.966;2022-10-31T18:07:37;14.40;98.50
29501;DHT22;16450;50.288;10.966;2022-10-31T18:10:38;14.30;98.40
29501;DHT22;16450;50.288;10.966;2022-10-31T18:13:39;14.20;98.30
29501;DHT22;16450;50.288;10.966;2022-10-31T18:16:39;14.20;98.30
29501;DHT22;16450;50.288;10.966;2022-10-31T18:19:40;14.10;98.30
29501;DHT22;16450;50.288;10.966;2022-10-31T18:22:40;14.10;98.40
29501;DHT22;16450;50.288;10.966;2022-10-31T18:25:41;14.00;98.40
29501;DHT22;16450;50.288;10.966;2022-10-31T18:28:42;14.00;98.40
29501;DHT22;16450;50.288;10.966;2022-10-31T18:31:43;13.90;98.30
29501;DHT22;16450;50.288;10.966;2022-10-31T18:34:48;13.90;98.30
29501;DHT22;16450;50.288;10.966;2022-10-31T18:37:48;13.80;98.30
29501;DHT22;16450;50.288;10.966;2022-10-31T18:40:50;13.80;98.30
29501;DHT22;16450;50.288;10.966;2022-10-31T18:43:51;13.70;98.20
29501;DHT22;16450;50.288;10.966;2022-10-31T18:46:55;13.60;98.10
29501;DHT22;16450;50.288;10.966;2022-10-31T18:49:56;13.60;98.10
29501;DHT22;16450;50.288;10.966;2022-10-31T18:52:56;13.50;98.00
29501;DHT22;16450;50.288;10.966;2022-10-31T18:55:57;13.50;98.00
29501;DHT22;16450;50.288;10.966;2022-10-31T18:58:59;13.40;97.90
29501;DHT22;16450;50.288;10.966;2022-10-31T19:02:01;13.40;97.90
29501;DHT22;16450;50.288;10.966;2022-10-31T19:05:02;13.30;97.80
29501;DHT22;16450;50.288;10.966;2022-10-31T19:08:03;13.30;97.80
29501;DHT22;16450;50.288;10.966;2022-10-31T19:11:12;13.20;97.70
29501;DHT22;16450;50.288;10.966;2022-10-31T19:14:13;13.10;97.60
29501;DHT22;16450;50.288;10.966;2022-10-31T19:17:14;13.10;97.80
29501;DHT22;16450;50.288;10.966;2022-10-31T19:20:15;13.10;97.90
29501;DHT22;16450;50.288;10.966;2022-10-31T19:23:15;13.00;98.00
29501;DHT22;16450;50.288;10.966;2022-10-31T19:26:16;13.00;98.20
29501;DHT22;16450;50.288;10.966;2022-10-31T19:29:17;12.90;98.20
29501;DHT22;16450;50.288;10.966;2022-10-31T19:32:18;12.90;98.30
29501;DHT22;16450;50.288;10.966;2022-10-31T19:35:19;12.90;98.30
29501;DHT22;16450;50.288;10.966;2022-10-31T19:38:19;12.90;98.40
29501;DHT22;16450;50.288;10.966;2022-10-31T19:41:25;12.80;98.40
29501;DHT22;16450;50.288;10.966;2022-10-31T19:44:26;12.90;98.50
29501;DHT22;16450;50.288;10.966;2022-10-31T19:47:30;12.80;98.60
29501;DHT22;16450;50.288;10.966;2022-10-31T19:50:30;12.80;98.60
29501;DHT22;16450;50.288;10.966;2022-10-31T19:53:31;12.80;98.60
29501;DHT22;16450;50.288;10.966;2022-10-31T19:56:32;12.80;98.60
29501;DHT22;16450;50.288;10.966;2022-10-31T19:59:33;12.80;98.60
29501;DHT22;16450;50.288;10.966;2022-10-31T20:02:33;12.80;98.70
29501;DHT22;16450;50.288;10.966;2022-10-31T20:05:41;12.80;98.70
29501;DHT22;16450;50.288;10.966;2022-10-31T20:08:42;12.80;98.60
29501;DHT22;16450;50.288;10.966;2022-10-31T20:11:44;12.80;98.80
29501;DHT22;16450;50.288;10.966;2022-10-31T20:14:45;12.80;98.70
29501;DHT22;16450;50.288;10.966;2022-10-31T20:17:45;12.80;98.80
29501;DHT22;16450;50.288;10.966;2022-10-31T20:20:46;12.80;98.70
29501;DHT22;16450;50.288;10.966;2022-10-31T20:23:48;12.80;98.80
29501;DHT22;16450;50.288;10.966;2022-10-31T20:26:49;12.80;98.90
29501;DHT22;16450;50.288;10.966;2022-10-31T20:29:50;12.80;99.00
29501;DHT22;16450;50.288;10.966;2022-10-31T20:32:51;12.80;98.90
29501;DHT22;16450;50.288;10.966;2022-10-31T20:35:52;12.80;98.90
29501;DHT22;16450;50.288;10.966;2022-10-31T20:38:52;12.80;98.80
29501;DHT22;16450;50.288;10.966;2022-10-31T20:41:53;12.70;98.70
29501;DHT22;16450;50.288;10.966;2022-10-31T20:44:54;12.70;98.60
29501;DHT22;16450;50.288;10.966;2022-10-31T20:47:54;12.70;98.60
29501;DHT22;16450;50.288;10.966;2022-10-31T20:50:57;12.70;98.60
29501;DHT22;16450;50.288;10.966;2022-10-31T20:53:58;12.60;98.40
29501;DHT22;16450;50.288;10.966;2022-10-31T20:56:59;12.60;98.30
29501;DHT22;16450;50.288;10.966;2022-10-31T21:00:00;12.60;98.30
29501;DHT22;16450;50.288;10.966;2022-10-31T21:03:01;12.60;98.30
29501;DHT22;16450;50.288;10.966;2022-10-31T21:06:02;12.50;98.10
29501;DHT22;16450;50.288;10.966;2022-10-31T21:09:04;12.40;98.10
29501;DHT22;16450;50.288;10.966;2022-10-31T21:12:05;12.40;98.10
29501;DHT22;16450;50.288;10.966;2022-10-31T21:15:06;12.30;98.10